Time;durP1;ratioP1;P1;durP2;ratioP2;P2;SDS_P1;SDS_P2;PMS_P1;PMS_P2;Temp;Humidity;BMP_temperature;BMP_pressure;BME280_temperature;BME280_humidity;BME280_pressure;Samples;Min_cycle;Max_cycle;Signal;HPM_P1;HPM_P2
2023/06/20 00:02:18;;;;;;;6.53;5.93;;;;;;;;;;5098808;27;20204;-73
2023/06/20 00:04:45;;;;;;;7.05;5.82;;;;;;;;;;5099765;27;20199;-72
2023/06/20 00:07:12;;;;;;;5.13;4.72;;;;;;;;;;5101020;27;20194;-71
2023/06/20 00:09:39;;;;;;;6.18;5.07;;;;;;;;;;5104925;27;20201;-71
2023/06/20 00:12:07;;;;;;;5.70;4.95;;;;;;;;;;5097815;28;20206;-72
2023/06/20 00:14:37;;;;;;;5.03;4.60;;;;;;;;;;5097399;27;20205;-72
2023/06/20 00:17:05;;;;;;;4.57;4.18;;;;;;;;;;5103385;27;20216;-71
2023/06/20 00:19:32;;;;;;;5.22;4.72;;;;;;;;;;5104298;27;20217;-72
2023/06/20 00:22:02;;;;;;;5.30;4.90;;;;;;;;;;5101561;28;20198;-72
2023/06/20 00:24:31;;;;;;;5.10;4.63;;;;;;;;;;5101339;27;20202;-72
2023/06/20 00:26:58;;;;;;;4.85;4.35;;;;;;;;;;5098070;27;20292;-71
2023/06/20 00:29:25;;;;;;;4.90;4.50;;;;;;;;;;5097121;27;20234;-71
2023/06/20 00:31:54;;;;;;;4.60;4.30;;;;;;;;;;5099530;28;20315;-71
2023/06/20 00:34:21;;;;;;;5.20;4.80;;;;;;;;;;5097655;27;20198;-71
2023/06/20 00:36:48;;;;;;;5.50;5.10;;;;;;;;;;5098806;27;20205;-71
2023/06/20 00:39:16;;;;;;;6.90;6.30;;;;;;;;;;5097347;27;20209;-70
2023/06/20 00:41:43;;;;;;;5.32;4.90;;;;;;;;;;5099584;27;20202;-72
2023/06/20 00:44:10;;;;;;;6.85;5.38;;;;;;;;;;5101997;28;20202;-71
2023/06/20 00:46:38;;;;;;;4.85;4.45;;;;;;;;;;5098921;28;20225;-71
2023/06/20 00:49:08;;;;;;;5.28;4.88;;;;;;;;;;5099151;28;20259;-73
2023/06/20 00:51:36;;;;;;;6.03;5.50;;;;;;;;;;5097381;27;20218;-71
2023/06/20 00:54:03;;;;;;;5.32;4.93;;;;;;;;;;5101799;28;20225;-71
2023/06/20 00:56:31;;;;;;;6.05;5.45;;;;;;;;;;5097193;27;20209;-71
2023/06/20 00:58:58;;;;;;;5.50;5.07;;;;;;;;;;5094566;28;20217;-72
2023/06/20 01:01:31;;;;;;;5.22;4.82;;;;;;;;;;5102774;28;20205;-71
2023/06/20 01:04:00;;;;;;;5.70;5.20;;;;;;;;;;5104482;28;20300;-71
2023/06/20 01:06:33;;;;;;;5.22;4.57;;;;;;;;;;5104298;28;20325;-71
2023/06/20 01:09:02;;;;;;;5.47;4.80;;;;;;;;;;5097278;27;20292;-71
2023/06/20 01:11:33;;;;;;;5.45;4.95;;;;;;;;;;5097813;27;20225;-71
2023/06/20 01:14:02;;;;;;;4.60;4.28;;;;;;;;;;5099927;27;20198;-71
2023/06/20 01:16:33;;;;;;;5.63;5.13;;;;;;;;;;5099326;27;20202;-71
2023/06/20 01:19:03;;;;;;;5.40;4.90;;;;;;;;;;5095762;27;20205;-71
2023/06/20 01:21:35;;;;;;;5.15;4.70;;;;;;;;;;5099709;28;20226;-71
2023/06/20 01:24:07;;;;;;;4.93;4.63;;;;;;;;;;5102783;28;20205;-71
2023/06/20 01:26:39;;;;;;;5.10;4.70;;;;;;;;;;5098403;28;20209;-72
2023/06/20 01:29:14;;;;;;;5.10;4.45;;;;;;;;;;5097343;27;20237;-72
2023/06/20 01:31:44;;;;;;;5.13;4.72;;;;;;;;;;5095956;27;20227;-66
2023/06/20 01:34:15;;;;;;;5.30;4.80;;;;;;;;;;5101500;27;20206;-66
2023/06/20 01:36:43;;;;;;;5.45;4.97;;;;;;;;;;5097796;27;20212;-66
2023/06/20 01:39:13;;;;;;;6.20;5.60;;;;;;;;;;5095788;28;20213;-66
2023/06/20 01:41:41;;;;;;;6.28;5.65;;;;;;;;;;5096129;27;20200;-66
2023/06/20 01:44:10;;;;;;;7.75;5.97;;;;;;;;;;5094742;28;20206;-66
2023/06/20 01:46:37;;;;;;;5.90;5.00;;;;;;;;;;5090748;27;20205;-67
2023/06/20 01:49:06;;;;;;;4.65;4.32;;;;;;;;;;5094948;27;20206;-67
2023/06/20 01:51:34;;;;;;;5.55;4.50;;;;;;;;;;5096926;28;20226;-66
2023/06/20 01:54:03;;;;;;;4.90;4.45;;;;;;;;;;5095671;28;20406;-67
2023/06/20 01:56:32;;;;;;;5.18;4.78;;;;;;;;;;5096467;28;20343;-67
2023/06/20 01:59:00;;;;;;;5.40;4.90;;;;;;;;;;5099305;27;20205;-66
2023/06/20 02:01:27;;;;;;;4.78;4.38;;;;;;;;;;5098023;27;20213;-66
2023/06/20 02:03:56;;;;;;;4.68;4.28;;;;;;;;;;5103123;27;20205;-67
2023/06/20 02:06:24;;;;;;;4.80;4.43;;;;;;;;;;5099917;28;20198;-66
2023/06/20 02:08:52;;;;;;;4.40;4.10;;;;;;;;;;5098599;27;20198;-66
2023/06/20 02:11:21;;;;;;;4.47;4.07;;;;;;;;;;5096080;27;20214;-66
2023/06/20 02:13:50;;;;;;;4.70;4.30;;;;;;;;;;5101620;28;20205;-67
2023/06/20 02:16:18;;;;;;;4.97;4.60;;;;;;;;;;5095927;28;20202;-67
2023/06/20 02:18:46;;;;;;;5.70;5.20;;;;;;;;;;5103736;28;20281;-66
2023/06/20 02:21:17;;;;;;;5.70;5.20;;;;;;;;;;5099293;28;20197;-67
2023/06/20 02:23:44;;;;;;;5.05;4.65;;;;;;;;;;5100880;28;20198;-70
2023/06/20 02:26:13;;;;;;;4.90;4.50;;;;;;;;;;5097331;28;20207;-65
2023/06/20 02:28:41;;;;;;;5.25;4.80;;;;;;;;;;5096734;28;20234;-66
2023/06/20 02:31:12;;;;;;;5.47;4.70;;;;;;;;;;5095208;28;20224;-66
2023/06/20 02:33:40;;;;;;;4.60;4.30;;;;;;;;;;5101837;28;20232;-65
2023/06/20 02:36:08;;;;;;;5.38;4.97;;;;;;;;;;5099483;28;20245;-65
2023/06/20 02:38:36;;;;;;;5.43;4.93;;;;;;;;;;5099424;28;20209;-65
2023/06/20 02:41:03;;;;;;;5.03;4.63;;;;;;;;;;5096273;28;20225;-65
2023/06/20 02:43:30;;;;;;;5.18;4.78;;;;;;;;;;5095885;28;20198;-66
2023/06/20 02:46:01;;;;;;;5.15;4.75;;;;;;;;;;5099157;28;20206;-65
2023/06/20 02:48:36;;;;;;;4.82;4.53;;;;;;;;;;5097573;28;20198;-65
2023/06/20 02:51:07;;;;;;;5.00;4.60;;;;;;;;;;5097712;27;20231;-66
2023/06/20 02:53:39;;;;;;;5.55;5.07;;;;;;;;;;5096547;27;20213;-66
2023/06/20 02:56:09;;;;;;;5.20;4.55;;;;;;;;;;5106805;27;20208;-65
2023/06/20 02:58:37;;;;;;;4.72;4.28;;;;;;;;;;5101921;28;20208;-65
2023/06/20 03:01:05;;;;;;;6.80;4.70;;;;;;;;;;5104210;28;20208;-65
2023/06/20 03:03:35;;;;;;;4.80;4.30;;;;;;;;;;5100105;28;20205;-65
2023/06/20 03:06:03;;;;;;;5.10;4.60;;;;;;;;;;5101833;27;20320;-65
2023/06/20 03:08:31;;;;;;;4.20;3.90;;;;;;;;;;5101244;28;20205;-66
2023/06/20 03:10:58;;;;;;;4.38;4.03;;;;;;;;;;5100454;27;20228;-65
2023/06/20 03:13:26;;;;;;;5.03;4.60;;;;;;;;;;5100517;28;20212;-65
2023/06/20 03:15:55;;;;;;;5.07;4.50;;;;;;;;;;5104707;27;20208;-65
2023/06/20 03:18:22;;;;;;;4.75;4.38;;;;;;;;;;5097910;27;20198;-65
2023/06/20 03:20:52;;;;;;;4.40;4.10;;;;;;;;;;5102389;27;20198;-65
2023/06/20 03:23:19;;;;;;;4.97;4.22;;;;;;;;;;5097821;28;20254;-65
2023/06/20 03:25:46;;;;;;;4.47;4.00;;;;;;;;;;5101253;28;20202;-65
2023/06/20 03:28:14;;;;;;;5.60;4.38;;;;;;;;;;5103717;27;20228;-65
2023/06/20 03:30:41;;;;;;;4.07;3.78;;;;;;;;;;5105737;27;20206;-65
2023/06/20 03:33:08;;;;;;;4.53;4.13;;;;;;;;;;5097307;27;20202;-65
2023/06/20 03:35:35;;;;;;;4.43;4.07;;;;;;;;;;5108440;27;20214;-65
2023/06/20 03:38:04;;;;;;;5.50;4.28;;;;;;;;;;5099321;27;20202;-65
2023/06/20 03:40:31;;;;;;;5.00;4.55;;;;;;;;;;5099949;28;20202;-65
2023/06/20 03:42:58;;;;;;;5.22;3.95;;;;;;;;;;5100950;27;20202;-65
2023/06/20 03:45:25;;;;;;;5.03;4.25;;;;;;;;;;5099125;27;20213;-65
2023/06/20 03:47:52;;;;;;;5.40;4.78;;;;;;;;;;5098087;28;20208;-65
2023/06/20 03:50:20;;;;;;;6.63;4.22;;;;;;;;;;5101070;27;20209;-65
2023/06/20 03:52:47;;;;;;;4.68;4.38;;;;;;;;;;5100489;28;20226;-65
2023/06/20 03:55:15;;;;;;;5.60;5.10;;;;;;;;;;5096307;28;20210;-65
2023/06/20 03:57:42;;;;;;;5.13;4.60;;;;;;;;;;5099841;27;20209;-65
2023/06/20 04:00:12;;;;;;;4.85;4.28;;;;;;;;;;5099174;27;20220;-65
2023/06/20 04:02:41;;;;;;;4.97;4.35;;;;;;;;;;5100368;27;20197;-65
2023/06/20 04:05:09;;;;;;;4.57;4.22;;;;;;;;;;5100339;28;20226;-65
2023/06/20 04:07:36;;;;;;;4.32;3.97;;;;;;;;;;5101407;27;20209;-65
2023/06/20 04:10:03;;;;;;;4.88;4.47;;;;;;;;;;5098772;28;20206;-65
2023/06/20 04:12:32;;;;;;;5.03;4.53;;;;;;;;;;5097256;27;20218;-65
2023/06/20 04:14:59;;;;;;;7.32;6.60;;;;;;;;;;5099486;28;20204;-65
2023/06/20 04:17:27;;;;;;;7.57;6.88;;;;;;;;;;5098016;28;20255;-65
2023/06/20 04:19:54;;;;;;;7.20;6.50;;;;;;;;;;5104170;27;20205;-65
2023/06/20 04:22:26;;;;;;;7.68;6.97;;;;;;;;;;5099608;27;20229;-65
2023/06/20 04:24:54;;;;;;;7.30;6.70;;;;;;;;;;5099148;27;20205;-65
2023/06/20 04:27:21;;;;;;;6.43;5.90;;;;;;;;;;5100753;27;20213;-65
2023/06/20 04:29:49;;;;;;;6.45;5.95;;;;;;;;;;5095297;27;20234;-65
2023/06/20 04:32:18;;;;;;;6.50;6.00;;;;;;;;;;5099083;27;20233;-65
2023/06/20 04:34:45;;;;;;;7.70;6.07;;;;;;;;;;5098095;27;20212;-65
2023/06/20 04:37:12;;;;;;;5.70;5.20;;;;;;;;;;5095862;27;20201;-65
2023/06/20 04:39:39;;;;;;;9.88;6.03;;;;;;;;;;5093416;27;20198;-65
2023/06/20 04:42:07;;;;;;;32.20;7.25;;;;;;;;;;5093801;28;20194;-64
2023/06/20 04:44:34;;;;;;;15.68;6.22;;;;;;;;;;5097070;27;20194;-65
2023/06/20 04:47:02;;;;;;;64.30;7.03;;;;;;;;;;5093242;27;20206;-66
2023/06/20 04:49:30;;;;;;;53.13;7.53;;;;;;;;;;5096533;27;20198;-65
2023/06/20 04:51:58;;;;;;;14.80;6.03;;;;;;;;;;5094923;27;20249;-65
2023/06/20 04:54:25;;;;;;;8.07;6.20;;;;;;;;;;5094367;28;20210;-65
2023/06/20 04:56:52;;;;;;;11.77;6.18;;;;;;;;;;5101040;27;20202;-65
2023/06/20 04:59:19;;;;;;;22.75;7.60;;;;;;;;;;5098432;28;20194;-65
2023/06/20 05:01:50;;;;;;;29.85;8.02;;;;;;;;;;5093932;28;20208;-65
2023/06/20 05:04:19;;;;;;;7.40;6.03;;;;;;;;;;5098908;27;20201;-65
2023/06/20 05:06:46;;;;;;;5.28;4.88;;;;;;;;;;5094351;27;20289;-65
2023/06/20 05:09:14;;;;;;;6.18;5.68;;;;;;;;;;5098968;27;20276;-65
2023/06/20 05:11:41;;;;;;;5.53;5.03;;;;;;;;;;5098369;27;20213;-65
2023/06/20 05:14:08;;;;;;;6.38;5.78;;;;;;;;;;5098038;27;20211;-65
2023/06/20 05:16:35;;;;;;;9.52;8.10;;;;;;;;;;5095797;27;20205;-65
2023/06/20 05:19:02;;;;;;;23.80;11.30;;;;;;;;;;5099809;28;20201;-65
2023/06/20 05:21:31;;;;;;;24.60;12.55;;;;;;;;;;5094330;28;20197;-65
2023/06/20 05:23:58;;;;;;;24.88;16.20;;;;;;;;;;5101371;27;20216;-65
2023/06/20 05:26:25;;;;;;;19.40;13.90;;;;;;;;;;5097781;28;20209;-65
2023/06/20 05:28:52;;;;;;;27.55;15.32;;;;;;;;;;5096422;27;20264;-65
2023/06/20 05:31:19;;;;;;;19.08;14.82;;;;;;;;;;5100213;28;20203;-65
2023/06/20 05:33:47;;;;;;;17.77;14.60;;;;;;;;;;5098205;27;20224;-65
2023/06/20 05:36:14;;;;;;;18.52;14.65;;;;;;;;;;5096545;27;20206;-65
2023/06/20 05:38:43;;;;;;;16.10;14.38;;;;;;;;;;5093994;28;20197;-65
2023/06/20 05:41:14;;;;;;;15.52;13.95;;;;;;;;;;5094816;28;20217;-65
2023/06/20 05:43:41;;;;;;;22.35;16.80;;;;;;;;;;5094030;28;20211;-65
2023/06/20 05:46:08;;;;;;;14.20;12.70;;;;;;;;;;5102569;27;20224;-65
2023/06/20 05:48:35;;;;;;;15.27;13.50;;;;;;;;;;5092671;27;20293;-65
2023/06/20 05:51:03;;;;;;;14.15;12.85;;;;;;;;;;5092908;27;20208;-65
2023/06/20 05:53:30;;;;;;;16.65;14.40;;;;;;;;;;5097672;28;20290;-68
2023/06/20 05:55:58;;;;;;;16.83;15.13;;;;;;;;;;5094137;28;20206;-65
2023/06/20 05:58:26;;;;;;;14.98;13.48;;;;;;;;;;5096591;28;20198;-65
2023/06/20 06:00:53;;;;;;;17.20;15.50;;;;;;;;;;5092220;27;20217;-65
2023/06/20 06:03:20;;;;;;;20.15;17.65;;;;;;;;;;5098611;28;20221;-65
2023/06/20 06:05:47;;;;;;;16.27;14.48;;;;;;;;;;5094679;28;20209;-65
2023/06/20 06:08:14;;;;;;;19.77;17.70;;;;;;;;;;5095889;28;20305;-65
2023/06/20 06:10:41;;;;;;;17.23;15.52;;;;;;;;;;5101029;28;20202;-65
2023/06/20 06:13:10;;;;;;;20.27;18.20;;;;;;;;;;5099831;27;20217;-65
2023/06/20 06:15:38;;;;;;;13.75;12.32;;;;;;;;;;5095909;28;20205;-65
2023/06/20 06:18:08;;;;;;;14.73;13.23;;;;;;;;;;5095164;28;20194;-65
2023/06/20 06:20:35;;;;;;;16.67;15.10;;;;;;;;;;5096357;27;20252;-65
2023/06/20 06:23:03;;;;;;;12.60;11.50;;;;;;;;;;5091597;28;20205;-65
2023/06/20 06:25:30;;;;;;;14.02;12.82;;;;;;;;;;5094964;28;20209;-65
2023/06/20 06:27:57;;;;;;;13.07;11.88;;;;;;;;;;5096329;28;20217;-65
2023/06/20 06:30:25;;;;;;;13.90;12.63;;;;;;;;;;5099369;28;20231;-65
2023/06/20 06:32:53;;;;;;;11.80;10.80;;;;;;;;;;5099766;28;20216;-65
2023/06/20 06:35:21;;;;;;;14.38;13.18;;;;;;;;;;5091911;28;20212;-65
2023/06/20 06:37:48;;;;;;;13.70;12.52;;;;;;;;;;5098482;28;20209;-65
2023/06/20 06:40:15;;;;;;;12.45;11.45;;;;;;;;;;5093514;28;20208;-65
2023/06/20 06:42:42;;;;;;;12.02;11.13;;;;;;;;;;5092390;28;20201;-65
2023/06/20 06:45:10;;;;;;;11.80;10.90;;;;;;;;;;5101199;28;20217;-65
2023/06/20 06:47:38;;;;;;;10.80;10.00;;;;;;;;;;5103703;28;20198;-65
2023/06/20 06:50:06;;;;;;;14.73;13.55;;;;;;;;;;5099377;28;20221;-65
2023/06/20 06:52:34;;;;;;;14.60;13.50;;;;;;;;;;5099871;28;20228;-65
2023/06/20 06:55:01;;;;;;;11.10;10.15;;;;;;;;;;5100447;28;20205;-65
2023/06/20 06:57:28;;;;;;;11.70;10.80;;;;;;;;;;5095713;28;20202;-65
2023/06/20 06:59:56;;;;;;;15.30;13.90;;;;;;;;;;5097902;28;20205;-65
2023/06/20 07:02:23;;;;;;;12.50;11.40;;;;;;;;;;5100620;28;20198;-65
2023/06/20 07:04:51;;;;;;;16.20;14.70;;;;;;;;;;5099476;28;20194;-65
2023/06/20 07:07:18;;;;;;;16.90;15.27;;;;;;;;;;5097347;28;20228;-65
2023/06/20 07:09:45;;;;;;;15.85;14.35;;;;;;;;;;5100260;28;20217;-65
2023/06/20 07:12:14;;;;;;;12.80;11.70;;;;;;;;;;5097070;28;20195;-65
2023/06/20 07:14:41;;;;;;;10.60;9.70;;;;;;;;;;5100125;28;20213;-65
2023/06/20 07:17:08;;;;;;;11.90;10.80;;;;;;;;;;5098334;28;20414;-65
2023/06/20 07:19:35;;;;;;;11.05;10.15;;;;;;;;;;5097297;28;20208;-64
2023/06/20 07:22:04;;;;;;;11.23;10.30;;;;;;;;;;5098973;28;20217;-64
2023/06/20 07:24:31;;;;;;;10.65;9.75;;;;;;;;;;5098737;28;20218;-64
2023/06/20 07:26:58;;;;;;;9.75;8.95;;;;;;;;;;5096622;28;20265;-65
2023/06/20 07:29:25;;;;;;;9.52;8.82;;;;;;;;;;5095963;28;20238;-65
2023/06/20 07:31:53;;;;;;;11.55;10.50;;;;;;;;;;5094501;28;20197;-64
2023/06/20 07:34:20;;;;;;;9.93;9.02;;;;;;;;;;5087860;28;20221;-64
2023/06/20 07:36:47;;;;;;;9.88;9.05;;;;;;;;;;5095654;28;20212;-64
2023/06/20 07:39:16;;;;;;;9.73;8.93;;;;;;;;;;5108926;28;20205;-64
2023/06/20 07:41:43;;;;;;;9.55;8.75;;;;;;;;;;5100476;28;20260;-63
2023/06/20 07:44:11;;;;;;;8.43;7.72;;;;;;;;;;5099391;28;20288;-63
2023/06/20 07:46:39;;;;;;;9.10;8.40;;;;;;;;;;5103894;28;20290;-64
2023/06/20 07:49:08;;;;;;;8.18;7.57;;;;;;;;;;5099950;28;20205;-64
2023/06/20 07:51:36;;;;;;;8.68;7.93;;;;;;;;;;5099941;28;20209;-64
2023/06/20 07:54:04;;;;;;;8.48;7.78;;;;;;;;;;5101311;28;20312;-63
2023/06/20 07:56:33;;;;;;;8.32;7.72;;;;;;;;;;5099335;28;20210;-64
2023/06/20 07:59:00;;;;;;;7.72;7.03;;;;;;;;;;5104550;28;20206;-63
2023/06/20 08:01:27;;;;;;;8.68;7.97;;;;;;;;;;5097653;28;20202;-63
2023/06/20 08:03:55;;;;;;;8.70;7.90;;;;;;;;;;5100849;28;20253;-63
2023/06/20 08:06:22;;;;;;;7.93;7.22;;;;;;;;;;5101285;28;20202;-63
2023/06/20 08:08:49;;;;;;;9.02;7.63;;;;;;;;;;5106024;28;20213;-64
2023/06/20 08:11:21;;;;;;;8.02;7.32;;;;;;;;;;5102482;28;20202;-63
2023/06/20 08:13:49;;;;;;;9.02;8.32;;;;;;;;;;5092679;28;20225;-64
2023/06/20 08:16:17;;;;;;;9.23;8.40;;;;;;;;;;5092297;27;20209;-63
2023/06/20 08:18:44;;;;;;;8.30;7.70;;;;;;;;;;5095454;28;20193;-63
2023/06/20 08:21:11;;;;;;;8.45;7.65;;;;;;;;;;5101513;27;20215;-63
2023/06/20 08:23:38;;;;;;;8.43;7.72;;;;;;;;;;5100010;27;20293;-63
2023/06/20 08:26:05;;;;;;;7.80;7.18;;;;;;;;;;5101641;28;20205;-63
2023/06/20 08:28:33;;;;;;;9.80;8.90;;;;;;;;;;5105499;28;20229;-63
2023/06/20 08:31:01;;;;;;;9.73;8.82;;;;;;;;;;5096127;28;20212;-63
2023/06/20 08:33:28;;;;;;;8.55;7.75;;;;;;;;;;5100433;27;20226;-63
2023/06/20 08:35:55;;;;;;;7.93;7.22;;;;;;;;;;5101959;28;20206;-63
2023/06/20 08:38:22;;;;;;;8.43;7.72;;;;;;;;;;5100592;28;20191;-63
2023/06/20 08:40:50;;;;;;;8.57;7.97;;;;;;;;;;5095633;27;20209;-63
2023/06/20 08:43:18;;;;;;;9.35;8.50;;;;;;;;;;5099824;27;20205;-64
2023/06/20 08:45:46;;;;;;;9.05;8.32;;;;;;;;;;5103149;27;20225;-64
2023/06/20 08:48:14;;;;;;;8.32;7.65;;;;;;;;;;5097448;27;20197;-63
2023/06/20 08:50:41;;;;;;;9.13;8.32;;;;;;;;;;5090663;27;20205;-63
2023/06/20 08:53:10;;;;;;;10.80;9.27;;;;;;;;;;5097146;28;20237;-64
2023/06/20 08:55:38;;;;;;;9.10;8.40;;;;;;;;;;5085629;28;20205;-64
2023/06/20 08:58:08;;;;;;;9.25;8.45;;;;;;;;;;5093999;28;20209;-63
2023/06/20 09:00:35;;;;;;;6.88;6.30;;;;;;;;;;5097698;28;20217;-63
2023/06/20 09:03:03;;;;;;;8.70;8.00;;;;;;;;;;5094053;27;20224;-63
2023/06/20 09:05:35;;;;;;;8.38;7.68;;;;;;;;;;5097234;27;20213;-63
2023/06/20 09:08:02;;;;;;;8.55;7.85;;;;;;;;;;5104718;27;20202;-63
2023/06/20 09:10:29;;;;;;;8.52;7.70;;;;;;;;;;5095944;28;20210;-63
2023/06/20 09:12:57;;;;;;;7.40;6.60;;;;;;;;;;5098239;28;20198;-63
2023/06/20 09:15:25;;;;;;;7.47;6.43;;;;;;;;;;5098557;28;20201;-63
2023/06/20 09:17:53;;;;;;;7.00;6.38;;;;;;;;;;5106883;27;20210;-63
2023/06/20 09:20:20;;;;;;;6.80;5.88;;;;;;;;;;5101338;27;20202;-63
2023/06/20 09:22:48;;;;;;;7.05;6.43;;;;;;;;;;5097891;28;20204;-63
2023/06/20 09:25:20;;;;;;;7.00;6.30;;;;;;;;;;5097730;27;20217;-63
2023/06/20 09:27:47;;;;;;;7.07;6.47;;;;;;;;;;5090576;28;20217;-64
2023/06/20 09:30:14;;;;;;;6.63;6.03;;;;;;;;;;5095611;27;20237;-62
2023/06/20 09:32:42;;;;;;;6.63;6.03;;;;;;;;;;5095852;27;20213;-63
2023/06/20 09:35:11;;;;;;;6.45;5.95;;;;;;;;;;5099062;28;20221;-63
2023/06/20 09:37:41;;;;;;;6.60;6.00;;;;;;;;;;5098661;27;20198;-63
2023/06/20 09:40:11;;;;;;;5.88;5.30;;;;;;;;;;5096973;28;20304;-65
2023/06/20 09:42:39;;;;;;;5.35;4.85;;;;;;;;;;5096869;28;20211;-64
2023/06/20 09:45:07;;;;;;;5.20;4.57;;;;;;;;;;5096296;27;20202;-63
2023/06/20 09:47:35;;;;;;;6.70;6.05;;;;;;;;;;5096695;28;20202;-62
2023/06/20 09:50:05;;;;;;;6.32;5.75;;;;;;;;;;5094094;28;20208;-62
2023/06/20 09:52:34;;;;;;;6.22;5.63;;;;;;;;;;5093527;27;20220;-62
2023/06/20 09:55:01;;;;;;;5.93;5.28;;;;;;;;;;5102550;27;20250;-62
2023/06/20 09:57:34;;;;;;;5.72;5.32;;;;;;;;;;5098081;27;20203;-62
2023/06/20 10:00:04;;;;;;;4.70;4.30;;;;;;;;;;5103204;27;20206;-62
2023/06/20 10:02:32;;;;;;;4.47;4.07;;;;;;;;;;5097173;27;20345;-62
2023/06/20 10:05:00;;;;;;;5.25;4.00;;;;;;;;;;5100500;28;20202;-62
2023/06/20 10:07:27;;;;;;;4.50;4.10;;;;;;;;;;5097268;28;20300;-62
2023/06/20 10:09:56;;;;;;;4.32;3.97;;;;;;;;;;5104272;27;20205;-62
2023/06/20 10:12:24;;;;;;;4.97;4.50;;;;;;;;;;5099013;28;20194;-62
2023/06/20 10:14:52;;;;;;;4.65;4.25;;;;;;;;;;5095061;28;20237;-61
2023/06/20 10:17:30;;;;;;;5.20;4.70;;;;;;;;;;5094707;28;20201;-62
2023/06/20 10:19:58;;;;;;;4.30;4.00;;;;;;;;;;5097831;27;20197;-62
2023/06/20 10:22:35;;;;;;;4.65;4.25;;;;;;;;;;5099101;28;20209;-61
2023/06/20 10:25:11;;;;;;;4.82;4.43;;;;;;;;;;5099819;28;20206;-62
2023/06/20 10:27:38;;;;;;;4.95;4.43;;;;;;;;;;5099694;27;20230;-62
2023/06/20 10:30:08;;;;;;;4.38;4.07;;;;;;;;;;5097454;28;20234;-61
2023/06/20 10:32:35;;;;;;;3.97;3.67;;;;;;;;;;5096747;28;20201;-62
2023/06/20 10:35:07;;;;;;;4.55;4.03;;;;;;;;;;5093224;28;20225;-62
2023/06/20 10:37:39;;;;;;;5.05;3.95;;;;;;;;;;5092752;28;20205;-62
2023/06/20 10:40:09;;;;;;;4.55;4.18;;;;;;;;;;5092639;28;20292;-62
2023/06/20 10:42:40;;;;;;;4.18;3.88;;;;;;;;;;5091855;28;20212;-62
2023/06/20 10:45:22;;;;;;;4.63;4.18;;;;;;;;;;5089562;28;20193;-62
2023/06/20 10:47:50;;;;;;;4.25;3.80;;;;;;;;;;5097494;28;20193;-62
2023/06/20 10:50:18;;;;;;;4.47;4.00;;;;;;;;;;5096032;28;20293;-61
2023/06/20 10:52:45;;;;;;;4.68;4.03;;;;;;;;;;5097627;28;20216;-62
2023/06/20 10:55:14;;;;;;;4.53;4.15;;;;;;;;;;5096687;28;20221;-62
2023/06/20 10:57:45;;;;;;;5.72;4.28;;;;;;;;;;5098238;28;20205;-62
2023/06/20 11:00:14;;;;;;;4.60;4.18;;;;;;;;;;5096975;28;20216;-62
2023/06/20 11:02:43;;;;;;;4.20;3.80;;;;;;;;;;5097275;28;20280;-62
2023/06/20 11:05:11;;;;;;;3.85;3.55;;;;;;;;;;5097165;28;20206;-62
2023/06/20 11:07:54;;;;;;;3.90;3.60;;;;;;;;;;5094321;28;20210;-62
2023/06/20 11:10:21;;;;;;;4.30;3.97;;;;;;;;;;5097991;28;20228;-62
2023/06/20 11:12:49;;;;;;;3.83;3.53;;;;;;;;;;5103169;28;20194;-62
2023/06/20 11:15:20;;;;;;;5.18;3.50;;;;;;;;;;5102010;28;20246;-62
2023/06/20 11:17:49;;;;;;;4.18;3.42;;;;;;;;;;5095552;27;20216;-62
2023/06/20 11:20:17;;;;;;;4.18;3.78;;;;;;;;;;5093977;27;20206;-62
2023/06/20 11:22:45;;;;;;;4.93;3.88;;;;;;;;;;5095186;28;20210;-66
2023/06/20 11:25:12;;;;;;;6.78;4.15;;;;;;;;;;5098630;27;20255;-63
2023/06/20 11:27:39;;;;;;;4.22;3.83;;;;;;;;;;5102598;27;20204;-62
2023/06/20 11:30:07;;;;;;;3.85;3.55;;;;;;;;;;5109089;27;20237;-62
2023/06/20 11:32:34;;;;;;;3.95;3.65;;;;;;;;;;5101191;27;20264;-62
2023/06/20 11:35:05;;;;;;;5.60;4.00;;;;;;;;;;5105887;27;20225;-62
2023/06/20 11:37:33;;;;;;;4.18;3.75;;;;;;;;;;5101960;27;20255;-62
2023/06/20 11:40:00;;;;;;;4.50;4.10;;;;;;;;;;5101924;27;20210;-62
2023/06/20 11:42:33;;;;;;;4.30;3.95;;;;;;;;;;5093881;27;20214;-72
2023/06/20 11:45:08;;;;;;;4.15;3.80;;;;;;;;;;5099390;27;20202;-73
2023/06/20 11:47:35;;;;;;;3.75;3.40;;;;;;;;;;5092967;28;20216;-71
2023/06/20 11:50:04;;;;;;;3.85;3.55;;;;;;;;;;5098468;28;20206;-72
2023/06/20 11:52:32;;;;;;;3.47;3.28;;;;;;;;;;5099112;27;20206;-72
2023/06/20 11:54:59;;;;;;;3.90;3.60;;;;;;;;;;5098231;28;20213;-73
2023/06/20 11:57:27;;;;;;;4.63;3.42;;;;;;;;;;5095517;28;20250;-72
2023/06/20 11:59:54;;;;;;;4.93;3.45;;;;;;;;;;5100578;28;20206;-72
2023/06/20 12:02:22;;;;;;;4.35;3.95;;;;;;;;;;5098991;28;20209;-72
2023/06/20 12:04:57;;;;;;;3.60;3.38;;;;;;;;;;5098486;28;20198;-73
2023/06/20 12:07:26;;;;;;;3.53;3.33;;;;;;;;;;5097164;28;20189;-72
2023/06/20 12:09:53;;;;;;;5.75;3.83;;;;;;;;;;5097764;27;20198;-72
2023/06/20 12:12:20;;;;;;;3.67;3.47;;;;;;;;;;5094266;28;20285;-71
2023/06/20 12:14:52;;;;;;;4.28;3.45;;;;;;;;;;5100277;28;20222;-72
2023/06/20 12:17:19;;;;;;;3.88;3.60;;;;;;;;;;5085508;28;20222;-72
2023/06/20 12:19:51;;;;;;;4.07;3.78;;;;;;;;;;5075588;28;20264;-72
2023/06/20 12:22:18;;;;;;;3.90;3.50;;;;;;;;;;5072575;28;20207;-72
2023/06/20 12:24:47;;;;;;;3.90;3.60;;;;;;;;;;5075949;28;20198;-72
2023/06/20 12:27:14;;;;;;;4.50;3.33;;;;;;;;;;5076871;28;20212;-72
2023/06/20 12:29:41;;;;;;;4.10;3.40;;;;;;;;;;5080687;28;20233;-72
2023/06/20 12:32:09;;;;;;;5.85;3.72;;;;;;;;;;5068321;28;20213;-72
2023/06/20 12:34:37;;;;;;;4.82;3.88;;;;;;;;;;5068363;28;20218;-72
2023/06/20 12:37:04;;;;;;;4.10;3.70;;;;;;;;;;5072977;28;20256;-72
2023/06/20 12:39:31;;;;;;;7.03;3.55;;;;;;;;;;5081625;28;20213;-71
2023/06/20 12:41:59;;;;;;;4.32;3.70;;;;;;;;;;5081897;28;20213;-72
2023/06/20 12:44:27;;;;;;;4.32;3.95;;;;;;;;;;5079646;28;20203;-72
2023/06/20 12:46:54;;;;;;;4.05;3.75;;;;;;;;;;5083850;28;20229;-71
2023/06/20 12:49:21;;;;;;;3.75;3.33;;;;;;;;;;5085769;28;20213;-72
2023/06/20 12:51:48;;;;;;;3.63;3.40;;;;;;;;;;5082917;28;20210;-72
2023/06/20 12:54:15;;;;;;;4.43;3.72;;;;;;;;;;5082724;28;20226;-71
2023/06/20 12:56:45;;;;;;;4.20;3.55;;;;;;;;;;5081188;28;20212;-71
2023/06/20 12:59:13;;;;;;;3.63;3.40;;;;;;;;;;5080515;28;20213;-71
2023/06/20 13:01:40;;;;;;;3.97;3.60;;;;;;;;;;5072135;28;20202;-71
2023/06/20 13:04:07;;;;;;;3.80;3.50;;;;;;;;;;5072842;28;20223;-71
2023/06/20 13:06:36;;;;;;;3.72;3.42;;;;;;;;;;5072758;28;20215;-72
2023/06/20 13:09:05;;;;;;;3.80;3.50;;;;;;;;;;5079873;28;20222;-72
2023/06/20 13:11:32;;;;;;;3.97;3.67;;;;;;;;;;5080662;28;20218;-72
2023/06/20 13:13:59;;;;;;;3.50;3.20;;;;;;;;;;5081412;28;20211;-72
2023/06/20 13:16:28;;;;;;;3.78;3.47;;;;;;;;;;5071807;28;20206;-72
2023/06/20 13:18:59;;;;;;;4.18;3.75;;;;;;;;;;5074515;28;20209;-72
2023/06/20 13:21:29;;;;;;;4.13;3.75;;;;;;;;;;5077124;28;20210;-72
2023/06/20 13:23:56;;;;;;;4.10;3.70;;;;;;;;;;5083108;28;20210;-72
2023/06/20 13:26:23;;;;;;;3.88;3.58;;;;;;;;;;5079331;28;20202;-72
2023/06/20 13:28:50;;;;;;;4.95;3.90;;;;;;;;;;5075634;28;20230;-72
2023/06/20 13:31:18;;;;;;;5.10;3.72;;;;;;;;;;5083637;28;20216;-72
2023/06/20 13:33:46;;;;;;;4.47;4.07;;;;;;;;;;5081203;28;20205;-73
2023/06/20 13:36:14;;;;;;;3.95;3.65;;;;;;;;;;5070949;28;20218;-72
2023/06/20 13:38:43;;;;;;;4.05;3.75;;;;;;;;;;5072036;28;20253;-72
2023/06/20 13:41:10;;;;;;;3.90;3.60;;;;;;;;;;5079586;28;20206;-72
2023/06/20 13:43:38;;;;;;;5.30;4.13;;;;;;;;;;5081369;28;20288;-72
2023/06/20 13:46:05;;;;;;;4.30;4.00;;;;;;;;;;5076718;28;20205;-72
2023/06/20 13:48:32;;;;;;;4.38;3.97;;;;;;;;;;5077606;28;20202;-72
2023/06/20 13:51:01;;;;;;;4.20;3.90;;;;;;;;;;5080435;28;20213;-73
2023/06/20 13:53:28;;;;;;;4.88;3.63;;;;;;;;;;5080111;28;20289;-73
2023/06/20 13:55:56;;;;;;;4.75;4.07;;;;;;;;;;5075790;28;20218;-73
2023/06/20 13:58:23;;;;;;;4.43;4.03;;;;;;;;;;5078777;28;20231;-72
2023/06/20 14:00:50;;;;;;;4.40;4.10;;;;;;;;;;5077706;28;20215;-72
2023/06/20 14:03:17;;;;;;;5.00;4.50;;;;;;;;;;5081906;28;20206;-72
2023/06/20 14:05:45;;;;;;;5.70;4.10;;;;;;;;;;5077873;28;20199;-72
2023/06/20 14:08:13;;;;;;;5.18;4.10;;;;;;;;;;5070570;28;20210;-72
2023/06/20 14:10:40;;;;;;;7.32;4.50;;;;;;;;;;5073809;28;20266;-72
2023/06/20 14:13:10;;;;;;;4.60;4.20;;;;;;;;;;5080369;28;20209;-72
2023/06/20 14:15:38;;;;;;;4.65;3.92;;;;;;;;;;5078103;28;20226;-71
2023/06/20 14:18:05;;;;;;;5.00;4.00;;;;;;;;;;5078299;28;20226;-72
2023/06/20 14:20:32;;;;;;;5.10;4.40;;;;;;;;;;5074499;28;20206;-73
2023/06/20 14:22:59;;;;;;;5.10;4.00;;;;;;;;;;5076273;28;20217;-72
2023/06/20 14:25:28;;;;;;;4.63;4.28;;;;;;;;;;5074314;28;20197;-72
2023/06/20 14:27:55;;;;;;;5.55;4.60;;;;;;;;;;5079726;28;20198;-72
2023/06/20 14:30:22;;;;;;;4.90;4.50;;;;;;;;;;5080099;28;20229;-72
2023/06/20 14:32:49;;;;;;;5.25;4.63;;;;;;;;;;5079433;28;20202;-72
2023/06/20 14:35:17;;;;;;;4.93;4.40;;;;;;;;;;5075526;28;20206;-72
2023/06/20 14:37:44;;;;;;;4.43;4.03;;;;;;;;;;5074035;28;20217;-72
2023/06/20 14:40:11;;;;;;;4.60;4.20;;;;;;;;;;5069548;28;20206;-72
2023/06/20 14:42:40;;;;;;;5.75;4.47;;;;;;;;;;5073724;28;20199;-72
2023/06/20 14:45:08;;;;;;;9.75;4.63;;;;;;;;;;5080753;28;20221;-72